createdAt,value
2023-02-11T00:01:37.192Z,-6.32
2023-02-11T00:04:07.050Z,-6.39
2023-02-11T00:06:36.488Z,-6.45
2023-02-11T00:09:05.888Z,-6.50
2023-02-11T00:11:34.889Z,-6.55
2023-02-11T00:14:06.117Z,-6.61
2023-02-11T00:16:34.854Z,-6.67
2023-02-11T00:19:06.595Z,-6.76
2023-02-11T00:21:35.403Z,-6.82
2023-02-11T00:24:04.558Z,-6.84
2023-02-11T00:26:35.441Z,-6.84
2023-02-11T00:29:06.350Z,-6.82
2023-02-11T00:31:35.142Z,-6.83
2023-02-11T00:34:03.812Z,-6.86
2023-02-11T00:41:14.010Z,-7.03
2023-02-11T00:43:42.942Z,-7.09
2023-02-11T00:46:12.143Z,-7.12
2023-02-11T00:48:41.009Z,-7.15
2023-02-11T00:51:10.173Z,-7.18
2023-02-11T00:53:39.068Z,-7.22
2023-02-11T00:56:08.251Z,-7.27
2023-02-11T00:58:37.559Z,-7.30
2023-02-11T01:01:06.564Z,-7.34
2023-02-11T01:03:35.516Z,-7.35
2023-02-11T01:06:04.742Z,-7.38
2023-02-11T01:08:33.205Z,-7.42
2023-02-11T01:11:06.100Z,-7.50
2023-02-11T01:14:34.292Z,-7.57
2023-02-11T01:21:20.608Z,-7.71
2023-02-11T01:23:49.109Z,-7.72
2023-02-11T01:26:17.594Z,-7.73
2023-02-11T01:28:46.472Z,-7.74
2023-02-11T01:31:14.844Z,-7.78
2023-02-11T01:33:43.743Z,-7.82
2023-02-11T01:36:13.350Z,-7.85
2023-02-11T01:38:42.049Z,-7.86
2023-02-11T01:41:13.482Z,-7.86
2023-02-11T01:43:48.219Z,-7.84
2023-02-11T01:46:37.746Z,-7.81
2023-02-11T01:49:10.832Z,-7.80
2023-02-11T01:51:48.581Z,-7.81
2023-02-11T01:54:41.123Z,-7.83
2023-02-11T01:57:22.729Z,-7.84
2023-02-11T02:00:13.312Z,-7.84
2023-02-11T02:02:52.843Z,-7.82
2023-02-11T02:05:43.756Z,-7.82
2023-02-11T02:08:22.273Z,-7.83
2023-02-11T02:10:56.695Z,-7.85
2023-02-11T02:13:26.162Z,-7.90
2023-02-11T02:15:57.523Z,-7.93
2023-02-11T02:18:49.268Z,-7.95
2023-02-11T02:21:46.119Z,-7.96
2023-02-11T02:24:39.792Z,-7.99
2023-02-11T02:27:46.324Z,-8.02
2023-02-11T02:30:39.056Z,-8.04
2023-02-11T02:33:23.233Z,-8.07
2023-02-11T02:36:13.768Z,-8.08
2023-02-11T02:38:58.325Z,-8.12
2023-02-11T02:41:32.671Z,-8.22
2023-02-11T02:44:02.004Z,-8.33
2023-02-11T02:46:33.454Z,-8.47
2023-02-11T02:49:02.415Z,-8.57
2023-02-11T02:51:39.880Z,-8.63
2023-02-11T02:54:17.579Z,-8.66
2023-02-11T02:57:18.231Z,-8.67
2023-02-11T02:59:53.192Z,-8.67
2023-02-11T03:02:37.492Z,-8.66
2023-02-11T03:05:22.006Z,-8.65
2023-02-11T03:08:09.368Z,-8.64
2023-02-11T03:10:43.497Z,-8.61
2023-02-11T03:13:17.305Z,-8.56
2023-02-11T03:15:51.929Z,-8.51
2023-02-11T03:18:26.308Z,-8.47
2023-02-11T03:20:57.239Z,-8.43
2023-02-11T03:23:39.975Z,-8.41
2023-02-11T03:26:23.429Z,-8.37
2023-02-11T03:29:14.745Z,-8.36
2023-02-11T03:31:55.182Z,-8.36
2023-02-11T03:34:29.009Z,-8.34
2023-02-11T03:37:04.658Z,-8.30
2023-02-11T03:39:55.320Z,-8.29
2023-02-11T03:42:27.637Z,-8.28
2023-02-11T03:45:05.452Z,-8.25
2023-02-11T03:47:37.375Z,-8.27
2023-02-11T03:50:08.201Z,-8.32
2023-02-11T03:52:38.428Z,-8.38
2023-02-11T03:55:12.619Z,-8.43
2023-02-11T03:57:41.468Z,-8.51
2023-02-11T04:00:11.603Z,-8.61
2023-02-11T04:02:41.002Z,-8.73
2023-02-11T04:05:15.915Z,-8.86
2023-02-11T04:07:44.605Z,-8.95
2023-02-11T04:10:13.286Z,-9.03
2023-02-11T04:12:41.769Z,-9.11
2023-02-11T04:15:11.083Z,-9.19
2023-02-11T04:17:39.657Z,-9.25
2023-02-11T04:20:09.584Z,-9.28
2023-02-11T04:22:38.455Z,-9.28
2023-02-11T04:25:08.093Z,-9.27
2023-02-11T04:27:37.269Z,-9.24
2023-02-11T04:30:07.721Z,-9.24
2023-02-11T04:32:36.135Z,-9.24
2023-02-11T04:35:05.368Z,-9.21
2023-02-11T04:37:33.980Z,-9.16
2023-02-11T04:40:02.918Z,-9.18
2023-02-11T04:42:31.733Z,-9.25
2023-02-11T04:45:00.421Z,-9.31
2023-02-11T04:47:28.797Z,-9.38
2023-02-11T04:50:57.294Z,-9.42
2023-02-11T04:54:25.575Z,-9.48
2023-02-11T04:57:57.861Z,-9.49
2023-02-11T05:01:26.159Z,-9.51
2023-02-11T05:04:54.616Z,-9.55
2023-02-11T05:08:23.011Z,-9.61
2023-02-11T05:11:57.269Z,-9.64
2023-02-11T05:19:42.683Z,-9.79
2023-02-11T05:22:11.533Z,-9.91
2023-02-11T05:24:40.214Z,-9.94
2023-02-11T05:27:08.901Z,-9.96
2023-02-11T05:29:37.692Z,-9.94
2023-02-11T05:32:07.608Z,-9.92
2023-02-11T05:34:37.112Z,-9.90
2023-02-11T05:37:05.836Z,-9.87
2023-02-11T05:39:34.376Z,-9.85
2023-02-11T05:42:03.060Z,-9.85
2023-02-11T05:44:31.588Z,-9.81
2023-02-11T05:47:00.135Z,-9.76
2023-02-11T05:49:28.913Z,-9.69
2023-02-11T05:51:57.504Z,-9.61
2023-02-11T05:54:26.415Z,-9.54
2023-02-11T05:56:54.869Z,-9.46
2023-02-11T05:59:23.454Z,-9.36
2023-02-11T06:01:52.135Z,-9.24
2023-02-11T06:04:21.030Z,-9.11
2023-02-11T06:06:49.612Z,-8.96
2023-02-11T06:09:18.096Z,-8.80
2023-02-11T06:11:46.872Z,-8.63
2023-02-11T06:14:15.404Z,-8.45
2023-02-11T06:16:44.053Z,-8.25
2023-02-11T06:19:13.038Z,-8.06
2023-02-11T06:21:44.147Z,-7.89
2023-02-11T06:24:13.570Z,-7.69
2023-02-11T06:26:42.275Z,-7.52
2023-02-11T06:29:10.762Z,-7.30
2023-02-11T06:31:39.963Z,-7.09
2023-02-11T06:34:10.693Z,-6.88
2023-02-11T06:36:40.057Z,-6.66
2023-02-11T06:39:08.786Z,-6.43
2023-02-11T06:41:38.083Z,-6.17
2023-02-11T06:44:07.307Z,-5.89
2023-02-11T06:46:35.877Z,-5.60
2023-02-11T06:49:04.446Z,-5.33
2023-02-11T06:51:33.339Z,-5.08
2023-02-11T06:54:02.087Z,-4.82
2023-02-11T06:56:30.621Z,-4.61
2023-02-11T06:59:00.134Z,-4.42
2023-02-11T07:01:28.921Z,-4.24
2023-02-11T07:03:57.488Z,-4.16
2023-02-11T07:06:28.220Z,-4.02
2023-02-11T07:08:56.847Z,-3.81
2023-02-11T07:11:28.010Z,-3.65
2023-02-11T07:14:56.540Z,-3.42
2023-02-11T07:18:28.615Z,-3.23
2023-02-11T07:20:57.404Z,-3.14
2023-02-11T07:23:25.759Z,-3.02
2023-02-11T07:25:54.162Z,-2.90
2023-02-11T07:28:22.849Z,-2.73
2023-02-11T07:30:51.354Z,-2.61
2023-02-11T07:33:19.812Z,-2.53
2023-02-11T07:35:49.279Z,-2.46
2023-02-11T07:38:18.011Z,-2.31
2023-02-11T07:40:46.481Z,-2.10
2023-02-11T07:43:15.372Z,-1.95
2023-02-11T07:45:43.920Z,-1.87
2023-02-11T07:48:12.439Z,-1.91
2023-02-11T07:50:41.140Z,-1.78
2023-02-11T07:53:09.810Z,-1.58
2023-02-11T07:55:38.291Z,-1.47
2023-02-11T07:58:06.980Z,-1.42
2023-02-11T08:00:35.503Z,-1.21
2023-02-11T08:03:04.556Z,-1.01
2023-02-11T08:05:33.550Z,-0.92
2023-02-11T08:08:01.805Z,-0.80
2023-02-11T08:10:30.308Z,-0.62
2023-02-11T08:12:58.895Z,-0.50
2023-02-11T08:15:27.441Z,-0.39
2023-02-11T08:17:55.858Z,-0.40
2023-02-11T08:20:24.745Z,-0.27
2023-02-11T08:22:53.204Z,-0.17
2023-02-11T08:25:21.609Z,-0.12
2023-02-11T08:27:50.265Z,-0.07
2023-02-11T08:30:18.771Z,0.09
2023-02-11T08:32:47.766Z,0.23
2023-02-11T08:35:16.663Z,0.31
2023-02-11T08:37:45.444Z,0.40
2023-02-11T08:40:13.874Z,0.46
2023-02-11T08:42:42.644Z,0.53
2023-02-11T08:45:13.001Z,0.70
2023-02-11T08:47:41.531Z,0.77
2023-02-11T08:50:10.351Z,0.76
2023-02-11T08:52:38.951Z,0.82
2023-02-11T08:55:07.686Z,0.90
2023-02-11T08:57:36.373Z,0.97
2023-02-11T09:00:06.047Z,1.10
2023-02-11T09:02:34.632Z,1.32
2023-02-11T09:05:03.357Z,1.41
2023-02-11T09:07:32.423Z,1.40
2023-02-11T09:10:01.154Z,1.43
2023-02-11T09:12:29.721Z,1.42
2023-02-11T09:14:58.987Z,1.49
2023-02-11T09:17:27.344Z,1.55
2023-02-11T09:19:56.191Z,1.61
2023-02-11T09:22:24.775Z,1.67
2023-02-11T09:24:53.259Z,1.79
2023-02-11T09:27:21.955Z,1.86
2023-02-11T09:29:50.979Z,1.88
2023-02-11T09:32:19.428Z,1.96
2023-02-11T09:34:47.908Z,2.13
2023-02-11T09:37:16.795Z,2.23
2023-02-11T09:39:46.403Z,2.25
2023-02-11T09:42:38.236Z,2.40
2023-02-11T09:45:24.532Z,2.51
2023-02-11T09:47:58.304Z,2.58
2023-02-11T09:51:37.983Z,2.63
2023-02-11T09:54:46.377Z,2.69
2023-02-11T09:58:14.490Z,2.75
2023-02-11T10:01:47.703Z,2.85
2023-02-11T10:04:28.426Z,3.15
2023-02-11T10:07:08.337Z,3.14
2023-02-11T10:09:54.998Z,3.11
2023-02-11T10:12:33.028Z,3.12
2023-02-11T10:15:21.584Z,3.25
2023-02-11T10:18:11.259Z,3.45
2023-02-11T10:21:20.091Z,3.56
2023-02-11T10:23:52.665Z,3.67
2023-02-11T10:26:21.559Z,3.68
2023-02-11T10:28:54.205Z,3.84
2023-02-11T10:31:42.897Z,4.02
2023-02-11T10:34:13.550Z,4.24
2023-02-11T10:36:44.708Z,4.38
2023-02-11T10:39:22.115Z,4.47
2023-02-11T10:42:12.662Z,4.70
2023-02-11T10:44:58.169Z,4.80
2023-02-11T10:47:30.991Z,4.90
2023-02-11T10:50:03.875Z,5.05
2023-02-11T10:52:32.560Z,5.15
2023-02-11T10:55:03.244Z,5.23
2023-02-11T10:57:46.887Z,5.27
2023-02-11T11:00:18.622Z,5.14
2023-02-11T11:02:57.846Z,5.25
2023-02-11T11:05:33.286Z,5.44
2023-02-11T11:08:07.105Z,5.74
2023-02-11T11:10:47.168Z,5.87
2023-02-11T11:14:13.672Z,6.10
2023-02-11T11:17:41.995Z,6.31
2023-02-11T11:20:27.792Z,6.57
2023-02-11T11:23:19.920Z,6.58
2023-02-11T11:26:11.243Z,6.65
2023-02-11T11:28:53.751Z,6.97
2023-02-11T11:31:26.391Z,7.19
2023-02-11T11:33:58.299Z,7.24
2023-02-11T11:36:35.688Z,7.37
2023-02-11T11:39:28.019Z,7.27
2023-02-11T11:41:58.610Z,7.39
2023-02-11T11:44:38.505Z,7.40
2023-02-11T11:47:13.840Z,7.61
2023-02-11T11:49:49.240Z,7.71
2023-02-11T11:52:35.245Z,7.82
2023-02-11T11:55:42.366Z,7.93
2023-02-11T11:58:19.040Z,8.30
2023-02-11T12:00:58.479Z,8.08
2023-02-11T12:03:45.326Z,8.30
2023-02-11T12:06:39.995Z,8.40
2023-02-11T12:09:17.804Z,8.23
2023-02-11T12:12:06.754Z,7.82
2023-02-11T12:14:46.497Z,8.21
2023-02-11T12:17:25.943Z,8.45
2023-02-11T12:20:29.848Z,8.72
2023-02-11T12:23:06.730Z,8.99
2023-02-11T12:25:46.806Z,9.23
2023-02-11T12:28:24.942Z,9.39
2023-02-11T12:31:13.288Z,9.09
2023-02-11T12:34:19.299Z,9.11
2023-02-11T12:37:07.925Z,9.65
2023-02-11T12:39:51.884Z,9.96
2023-02-11T12:43:09.845Z,10.14
2023-02-11T12:46:03.117Z,9.98
2023-02-11T12:48:37.844Z,9.81
2023-02-11T12:51:12.359Z,9.68
2023-02-11T12:53:50.994Z,9.87
2023-02-11T12:56:28.780Z,10.22
2023-02-11T12:59:00.873Z,10.20
2023-02-11T13:01:31.781Z,9.88
2023-02-11T13:04:09.589Z,9.17
2023-02-11T13:06:45.159Z,9.63
2023-02-11T13:09:21.537Z,10.31
2023-02-11T13:11:55.056Z,10.36
2023-02-11T13:14:38.337Z,10.30
2023-02-11T13:17:16.721Z,10.76
2023-02-11T13:19:55.811Z,10.62
2023-02-11T13:22:32.564Z,10.05
2023-02-11T13:25:25.204Z,10.50
2023-02-11T13:28:21.163Z,10.45
2023-02-11T13:30:57.909Z,10.09
2023-02-11T13:33:46.456Z,9.93
2023-02-11T13:36:18.353Z,10.65
2023-02-11T13:39:00.024Z,10.65
2023-02-11T13:41:30.343Z,10.71
2023-02-11T13:44:10.900Z,10.55
2023-02-11T13:46:59.972Z,9.76
2023-02-11T13:49:36.716Z,8.98
2023-02-11T13:52:17.411Z,8.43
2023-02-11T13:54:52.340Z,7.90
2023-02-11T13:57:20.921Z,7.73
2023-02-11T13:59:52.744Z,7.90
2023-02-11T14:02:43.376Z,8.03
2023-02-11T14:05:44.357Z,8.14
2023-02-11T14:08:31.653Z,8.32
2023-02-11T14:11:12.808Z,8.55
2023-02-11T14:13:53.363Z,8.94
2023-02-11T14:16:36.893Z,9.11
2023-02-11T14:19:06.926Z,8.78
2023-02-11T14:21:42.599Z,8.95
2023-02-11T14:24:33.983Z,9.16
2023-02-11T14:28:10.896Z,9.08
2023-02-11T14:31:17.862Z,8.97
2023-02-11T14:34:14.431Z,8.33
2023-02-11T14:36:59.420Z,8.16
2023-02-11T14:39:28.134Z,8.07
2023-02-11T14:41:57.191Z,7.91
2023-02-11T14:44:31.687Z,8.08
2023-02-11T14:47:00.682Z,8.06
2023-02-11T14:49:35.222Z,8.12
2023-02-11T14:52:32.185Z,8.01
2023-02-11T14:55:27.795Z,7.83
2023-02-11T14:58:08.916Z,7.40
2023-02-11T15:00:37.662Z,7.06
2023-02-11T15:03:06.246Z,6.96
2023-02-11T15:05:35.258Z,6.75
2023-02-11T15:08:05.677Z,6.35
2023-02-11T15:10:44.084Z,5.58
2023-02-11T15:13:20.661Z,4.99
2023-02-11T15:15:53.261Z,4.41
2023-02-11T15:18:24.645Z,3.93
2023-02-11T15:20:53.515Z,3.49
2023-02-11T15:23:26.252Z,3.04
2023-02-11T15:25:58.316Z,2.58
2023-02-11T15:28:31.388Z,2.24
2023-02-11T15:31:13.825Z,1.94
2023-02-11T15:33:42.473Z,1.66
2023-02-11T15:36:15.615Z,1.45
2023-02-11T15:38:45.000Z,1.23
2023-02-11T15:41:37.438Z,1.08
2023-02-11T15:44:05.988Z,0.92
2023-02-11T15:46:40.236Z,0.80
2023-02-11T15:49:19.414Z,0.65
2023-02-11T15:51:48.364Z,0.46
2023-02-11T15:59:08.664Z,0.23
2023-02-11T16:02:36.769Z,0.17
2023-02-11T16:09:24.121Z,0.05
2023-02-11T16:12:12.778Z,0.03
2023-02-11T16:14:41.461Z,-0.02
2023-02-11T16:17:24.681Z,-0.10
2023-02-11T16:19:54.497Z,-0.15
2023-02-11T16:22:26.749Z,-0.21
2023-02-11T16:24:58.934Z,-0.26
2023-02-11T16:27:41.346Z,-0.30
2023-02-11T16:30:33.228Z,-0.35
2023-02-11T16:33:01.967Z,-0.41
2023-02-11T16:35:30.757Z,-0.43
2023-02-11T16:37:59.232Z,-0.45
2023-02-11T16:40:28.124Z,-0.49
2023-02-11T16:42:56.710Z,-0.52
2023-02-11T16:45:25.204Z,-0.57
2023-02-11T16:47:53.775Z,-0.63
2023-02-11T16:50:25.114Z,-0.67
2023-02-11T16:52:54.010Z,-0.69
2023-02-11T16:55:22.604Z,-0.70
2023-02-11T16:57:51.191Z,-0.72
2023-02-11T17:00:20.481Z,-0.72
2023-02-11T17:02:49.020Z,-0.73
2023-02-11T17:05:23.101Z,-0.75
2023-02-11T17:08:51.365Z,-0.76
2023-02-11T17:12:20.058Z,-0.83
2023-02-11T17:15:48.704Z,-0.91
2023-02-11T17:22:11.961Z,-0.97
2023-02-11T17:24:40.413Z,-1.00
2023-02-11T17:27:11.427Z,-1.04
2023-02-11T17:29:40.238Z,-1.08
2023-02-11T17:32:08.802Z,-1.15
2023-02-11T17:34:37.219Z,-1.17
2023-02-11T17:37:09.682Z,-1.17
2023-02-11T17:39:40.234Z,-1.18
2023-02-11T17:42:08.995Z,-1.19
2023-02-11T17:44:38.260Z,-1.20
2023-02-11T17:47:07.903Z,-1.21
2023-02-11T17:49:36.593Z,-1.20
2023-02-11T17:52:05.488Z,-1.18
2023-02-11T17:54:34.178Z,-1.16
2023-02-11T17:57:02.857Z,-1.17
2023-02-11T17:59:35.766Z,-1.18
2023-02-11T18:02:05.661Z,-1.20
2023-02-11T18:04:34.085Z,-1.18
2023-02-11T18:07:03.044Z,-1.16
2023-02-11T18:09:36.125Z,-1.18
2023-02-11T18:12:05.785Z,-1.22
2023-02-11T18:14:34.514Z,-1.26
2023-02-11T18:17:03.195Z,-1.29
2023-02-11T18:19:33.492Z,-1.30
2023-02-11T18:22:02.935Z,-1.32
2023-02-11T18:24:31.827Z,-1.34
2023-02-11T18:27:00.509Z,-1.33
2023-02-11T18:29:29.892Z,-1.27
2023-02-11T18:31:58.637Z,-1.26
2023-02-11T18:34:27.386Z,-1.26
2023-02-11T18:36:57.181Z,-1.29
2023-02-11T18:39:26.704Z,-1.29
2023-02-11T18:41:57.101Z,-1.29
2023-02-11T18:44:27.522Z,-1.29
2023-02-11T18:46:56.147Z,-1.30
2023-02-11T18:49:24.628Z,-1.33
2023-02-11T18:51:53.316Z,-1.37
2023-02-11T18:54:22.305Z,-1.38
2023-02-11T18:56:50.907Z,-1.37
2023-02-11T18:59:19.381Z,-1.39
2023-02-11T19:01:48.059Z,-1.41
2023-02-11T19:04:20.572Z,-1.40
2023-02-11T19:06:50.160Z,-1.39
2023-02-11T19:09:20.400Z,-1.38
2023-02-11T19:11:52.606Z,-1.40
2023-02-11T19:14:28.256Z,-1.44
2023-02-11T19:16:59.253Z,-1.43
2023-02-11T19:19:30.181Z,-1.40
2023-02-11T19:22:00.385Z,-1.40
2023-02-11T19:24:30.117Z,-1.41
2023-02-11T19:27:02.167Z,-1.45
2023-02-11T19:29:35.410Z,-1.45
2023-02-11T19:32:09.103Z,-1.45
2023-02-11T19:34:41.528Z,-1.43
2023-02-11T19:37:13.073Z,-1.44
2023-02-11T19:39:42.711Z,-1.45
2023-02-11T19:42:12.202Z,-1.48
2023-02-11T19:44:40.988Z,-1.49
2023-02-11T19:47:10.706Z,-1.49
2023-02-11T19:49:39.176Z,-1.50
2023-02-11T19:52:07.733Z,-1.53
2023-02-11T19:54:38.366Z,-1.59
2023-02-11T19:57:06.982Z,-1.59
2023-02-11T19:59:35.875Z,-1.62
2023-02-11T20:02:04.637Z,-1.64
2023-02-11T20:04:33.545Z,-1.67
2023-02-11T20:07:02.236Z,-1.68
2023-02-11T20:09:32.046Z,-1.69
2023-02-11T20:12:00.751Z,-1.70
2023-02-11T20:14:29.526Z,-1.73
2023-02-11T20:16:58.105Z,-1.74
2023-02-11T20:19:28.124Z,-1.75
2023-02-11T20:21:57.509Z,-1.74
2023-02-11T20:24:26.620Z,-1.76
2023-02-11T20:26:58.497Z,-1.82
2023-02-11T20:29:29.702Z,-1.85
2023-02-11T20:31:58.315Z,-1.86
2023-02-11T20:34:26.997Z,-1.88
2023-02-11T20:36:56.404Z,-1.97
2023-02-11T20:39:26.103Z,-1.99
2023-02-11T20:41:55.305Z,-2.01
2023-02-11T20:44:24.795Z,-2.04
2023-02-11T20:46:56.760Z,-2.07
2023-02-11T20:49:25.461Z,-2.08
2023-02-11T20:52:53.534Z,-2.08
2023-02-11T20:56:22.087Z,-2.14
2023-02-11T20:59:55.641Z,-2.12
2023-02-11T21:03:24.298Z,-2.13
2023-02-11T21:06:13.704Z,-2.15
2023-02-11T21:08:42.493Z,-2.15
2023-02-11T21:11:11.280Z,-2.14
2023-02-11T21:13:41.330Z,-2.13
2023-02-11T21:16:14.820Z,-2.13
2023-02-11T21:18:44.208Z,-2.14
2023-02-11T21:21:12.794Z,-2.14
2023-02-11T21:23:41.588Z,-2.15
2023-02-11T21:26:10.683Z,-2.19
2023-02-11T21:28:41.047Z,-2.20
2023-02-11T21:32:09.673Z,-2.20
2023-02-11T21:35:38.188Z,-2.27
2023-02-11T21:39:06.675Z,-2.34
2023-02-11T21:42:34.953Z,-2.35
2023-02-11T21:45:03.707Z,-2.35
2023-02-11T21:48:31.903Z,-2.36
2023-02-11T21:52:00.124Z,-2.32
2023-02-11T21:55:28.902Z,-2.31
2023-02-11T21:58:57.188Z,-2.34
2023-02-11T22:02:25.576Z,-2.39
2023-02-11T22:05:54.296Z,-2.43
2023-02-11T22:09:22.858Z,-2.48
2023-02-11T22:16:43.437Z,-2.52
2023-02-11T22:19:21.110Z,-2.59
2023-02-11T22:21:50.247Z,-2.65
2023-02-11T22:24:18.867Z,-2.69
2023-02-11T22:26:47.350Z,-2.67
2023-02-11T22:29:16.203Z,-2.67
2023-02-11T22:31:44.851Z,-2.70
2023-02-11T22:34:13.606Z,-2.71
2023-02-11T22:36:42.393Z,-2.73
2023-02-11T22:39:16.252Z,-2.74
2023-02-11T22:41:46.216Z,-2.74
2023-02-11T22:44:17.430Z,-2.76
2023-02-11T22:46:46.352Z,-2.79
2023-02-11T22:49:16.471Z,-2.85
2023-02-11T22:51:45.566Z,-2.94
2023-02-11T22:54:16.404Z,-3.06
2023-02-11T22:56:45.707Z,-3.19
2023-02-11T22:59:15.930Z,-3.31
2023-02-11T23:01:45.410Z,-3.40
2023-02-11T23:04:17.354Z,-3.50
2023-02-11T23:06:47.813Z,-3.61
2023-02-11T23:09:16.508Z,-3.71
2023-02-11T23:11:45.095Z,-3.78
2023-02-11T23:14:13.898Z,-3.83
2023-02-11T23:16:42.489Z,-3.85
2023-02-11T23:19:11.490Z,-3.87
2023-02-11T23:22:39.848Z,-3.93
2023-02-11T23:26:08.336Z,-4.01
2023-02-11T23:29:36.780Z,-4.02
2023-02-11T23:37:22.203Z,-4.00
2023-02-11T23:40:50.402Z,-3.97
2023-02-11T23:44:18.688Z,-3.90
2023-02-11T23:47:46.792Z,-3.81
2023-02-11T23:51:19.276Z,-3.75
2023-02-11T23:54:47.551Z,-3.68
2023-02-11T23:58:16.142Z,-3.53
